Time;durP1;ratioP1;P1;durP2;ratioP2;P2;SDS_P1;SDS_P2;PMS_P1;PMS_P2;Temp;Humidity;BMP_temperature;BMP_pressure;BME280_temperature;BME280_humidity;BME280_pressure;Samples;Min_cycle;Max_cycle;Signal;HPM_P1;HPM_P2
2021/03/09 00:02:21;;;;;;;6.93;5.43;;;4.10;99.90;;;;;;5050908;28;20230;-76
2021/03/09 00:04:49;;;;;;;9.05;5.60;;;4.10;99.90;;;;;;5050433;28;20245;-77
2021/03/09 00:07:16;;;;;;;10.10;5.63;;;4.20;99.90;;;;;;5051182;28;20261;-77
2021/03/09 00:09:45;;;;;;;7.03;5.32;;;4.00;99.90;;;;;;5051915;28;20207;-77
2021/03/09 00:12:12;;;;;;;7.00;5.20;;;4.10;99.90;;;;;;5048378;28;20238;-76
2021/03/09 00:14:39;;;;;;;8.48;5.55;;;4.10;99.90;;;;;;5042922;28;20215;-76
2021/03/09 00:17:05;;;;;;;8.68;5.43;;;3.90;99.90;;;;;;5051568;28;20199;-77
2021/03/09 00:19:32;;;;;;;8.53;5.03;;;3.80;99.90;;;;;;5051410;28;20223;-76
2021/03/09 00:22:00;;;;;;;10.20;6.50;;;3.70;99.90;;;;;;5032917;28;20609;-77
2021/03/09 00:24:27;;;;;;;7.10;6.05;;;3.70;99.90;;;;;;5051264;28;20218;-77
2021/03/09 00:26:53;;;;;;;8.70;4.97;;;3.70;99.90;;;;;;5051001;28;20206;-77
2021/03/09 00:29:20;;;;;;;7.43;5.10;;;3.80;99.90;;;;;;5037527;28;20286;-76
2021/03/09 00:31:47;;;;;;;8.88;5.35;;;3.70;99.90;;;;;;5032527;28;20679;-77
2021/03/09 00:34:13;;;;;;;8.60;5.60;;;3.70;99.90;;;;;;5051602;28;20294;-77
2021/03/09 00:36:40;;;;;;;5.43;4.28;;;3.80;99.90;;;;;;5034697;28;20196;-77
2021/03/09 00:39:08;;;;;;;6.30;5.60;;;3.80;99.90;;;;;;5038249;28;20198;-78
2021/03/09 00:41:34;;;;;;;12.07;6.97;;;3.70;99.90;;;;;;5053141;28;20218;-77
2021/03/09 00:44:01;;;;;;;8.57;5.72;;;3.70;99.90;;;;;;5051978;28;20215;-77
2021/03/09 00:46:27;;;;;;;7.70;5.47;;;3.80;99.90;;;;;;5037799;28;20194;-77
2021/03/09 00:49:04;;;;;;;9.13;6.13;;;3.80;99.90;;;;;;5050980;28;20240;-77
2021/03/09 00:51:32;;;;;;;6.38;5.07;;;3.90;99.90;;;;;;5037412;28;20192;-76
2021/03/09 00:53:58;;;;;;;7.22;5.45;;;4.00;99.90;;;;;;5043088;28;20265;-76
2021/03/09 00:56:26;;;;;;;8.18;5.35;;;3.90;99.90;;;;;;5046901;28;20230;-75
2021/03/09 00:58:52;;;;;;;7.25;5.13;;;3.80;99.90;;;;;;5047495;28;20332;-75
2021/03/09 01:01:19;;;;;;;6.93;5.17;;;3.70;99.90;;;;;;5045007;28;20287;-74
2021/03/09 01:03:46;;;;;;;8.10;5.77;;;3.60;99.90;;;;;;5054155;28;20226;-74
2021/03/09 01:06:13;;;;;;;7.50;5.38;;;3.60;99.90;;;;;;5052374;28;20249;-74
2021/03/09 01:08:41;;;;;;;9.15;5.30;;;3.60;99.90;;;;;;5038678;28;20230;-74
2021/03/09 01:11:07;;;;;;;5.97;5.13;;;3.50;99.90;;;;;;5055576;28;20219;-74
2021/03/09 01:13:35;;;;;;;9.15;4.82;;;3.80;99.90;;;;;;5058363;28;20227;-74
2021/03/09 01:16:02;;;;;;;7.03;4.88;;;3.40;99.90;;;;;;5059794;28;20203;-74
2021/03/09 01:18:29;;;;;;;6.72;5.25;;;3.40;99.90;;;;;;5058579;28;20210;-75
2021/03/09 01:20:56;;;;;;;9.50;6.47;;;3.40;99.90;;;;;;5053827;28;20668;-75
2021/03/09 01:23:23;;;;;;;8.45;6.55;;;3.40;99.90;;;;;;5060771;28;20566;-75
2021/03/09 01:25:50;;;;;;;7.63;5.78;;;3.40;99.90;;;;;;5070796;28;20230;-75
2021/03/09 01:28:17;;;;;;;7.25;5.07;;;3.50;99.90;;;;;;5059636;28;20205;-74
2021/03/09 01:30:45;;;;;;;7.60;5.47;;;3.40;99.90;;;;;;5065331;28;20273;-74
2021/03/09 01:33:12;;;;;;;7.90;5.50;;;3.40;99.90;;;;;;5060257;28;20219;-74
2021/03/09 01:35:38;;;;;;;9.55;5.35;;;3.40;99.90;;;;;;5061328;28;20199;-75
2021/03/09 01:38:05;;;;;;;5.68;4.68;;;3.50;99.90;;;;;;5066992;28;20199;-74
2021/03/09 01:40:33;;;;;;;8.90;5.80;;;3.50;99.90;;;;;;5061878;28;20221;-74
2021/03/09 01:42:59;;;;;;;7.40;5.75;;;3.60;99.90;;;;;;5055914;28;20230;-75
2021/03/09 01:45:26;;;;;;;9.77;6.03;;;3.40;99.90;;;;;;5060551;28;20225;-74
2021/03/09 01:48:00;;;;;;;7.85;5.40;;;3.70;99.90;;;;;;5059769;28;20245;-74
2021/03/09 01:50:29;;;;;;;8.48;6.03;;;3.70;99.90;;;;;;5054058;28;20273;-75
2021/03/09 01:52:56;;;;;;;12.93;6.47;;;3.70;99.90;;;;;;5060589;28;20230;-75
2021/03/09 01:55:23;;;;;;;9.07;6.57;;;3.60;99.90;;;;;;5063182;28;20286;-75
2021/03/09 01:57:50;;;;;;;10.43;7.72;;;3.60;99.90;;;;;;5058062;28;20202;-74
2021/03/09 02:00:18;;;;;;;9.43;6.85;;;3.70;99.90;;;;;;5054224;28;20306;-74
2021/03/09 02:02:44;;;;;;;8.82;6.03;;;3.70;99.90;;;;;;5055431;28;20222;-74
2021/03/09 02:05:14;;;;;;;8.63;6.57;;;3.70;99.90;;;;;;5070553;28;20191;-75
2021/03/09 02:07:41;;;;;;;8.32;5.95;;;3.80;99.90;;;;;;5037162;28;20203;-74
2021/03/09 02:10:11;;;;;;;7.25;6.30;;;3.80;99.90;;;;;;5048350;28;20219;-74
2021/03/09 02:12:51;;;;;;;6.90;6.10;;;3.80;99.90;;;;;;5052684;28;20568;-74
2021/03/09 02:15:24;;;;;;;8.15;6.68;;;3.80;99.90;;;;;;5054929;28;20308;-74
2021/03/09 02:17:56;;;;;;;8.18;6.78;;;3.80;99.90;;;;;;5057853;28;20513;-74
2021/03/09 02:21:09;;;;;;;12.02;7.28;;;3.80;99.90;;;;;;5054222;28;20216;-74
2021/03/09 02:24:18;;;;;;;8.52;6.93;;;3.80;99.90;;;;;;5062953;28;20705;-74
2021/03/09 02:26:59;;;;;;;9.73;6.43;;;3.70;99.90;;;;;;5048557;28;20230;-74
2021/03/09 02:29:36;;;;;;;8.48;7.35;;;3.70;99.90;;;;;;5054945;28;20206;-74
2021/03/09 02:32:05;;;;;;;11.77;7.13;;;3.70;99.90;;;;;;5056193;28;20221;-74
2021/03/09 02:34:36;;;;;;;12.32;7.68;;;3.70;99.90;;;;;;5038946;28;20240;-75
2021/03/09 02:37:08;;;;;;;11.40;7.57;;;3.70;99.90;;;;;;5050516;28;20613;-75
2021/03/09 02:39:37;;;;;;;9.40;7.07;;;3.70;99.90;;;;;;5054842;28;20197;-74
2021/03/09 02:42:06;;;;;;;9.38;7.18;;;3.60;99.90;;;;;;5053583;28;20200;-75
2021/03/09 02:44:38;;;;;;;11.65;7.53;;;3.60;99.90;;;;;;5046933;28;20238;-75
2021/03/09 02:47:07;;;;;;;11.50;9.05;;;3.60;99.90;;;;;;5061105;28;20207;-76
2021/03/09 02:49:35;;;;;;;9.23;7.80;;;3.50;99.90;;;;;;5056015;28;20195;-75
2021/03/09 02:52:04;;;;;;;11.65;8.60;;;3.40;99.90;;;;;;5058519;28;20251;-75
2021/03/09 02:54:35;;;;;;;14.35;8.57;;;3.50;99.90;;;;;;5061458;28;20226;-74
2021/03/09 02:57:03;;;;;;;11.63;8.70;;;3.50;99.90;;;;;;5063881;28;20199;-75
2021/03/09 02:59:31;;;;;;;17.23;9.13;;;3.40;99.90;;;;;;5051709;28;20206;-75
2021/03/09 03:01:59;;;;;;;11.25;7.65;;;3.50;99.90;;;;;;5057984;28;20199;-75
2021/03/09 03:04:27;;;;;;;11.25;8.88;;;3.50;99.90;;;;;;5064666;28;20233;-76
2021/03/09 03:06:55;;;;;;;15.20;8.43;;;3.40;99.90;;;;;;5065774;28;20289;-75
2021/03/09 03:09:22;;;;;;;10.43;7.93;;;3.40;99.90;;;;;;5059662;28;20223;-75
2021/03/09 03:11:51;;;;;;;10.75;8.38;;;3.40;99.90;;;;;;5058638;28;20728;-75
2021/03/09 03:14:19;;;;;;;8.85;7.85;;;3.30;99.90;;;;;;5059086;28;20621;-74
2021/03/09 03:16:45;;;;;;;9.82;8.45;;;3.30;99.90;;;;;;5058128;28;20591;-75
2021/03/09 03:19:15;;;;;;;15.27;9.43;;;3.20;99.90;;;;;;5059171;28;20552;-75
2021/03/09 03:21:44;;;;;;;11.68;8.13;;;3.20;99.90;;;;;;5045369;28;20218;-75
2021/03/09 03:24:12;;;;;;;12.35;8.00;;;3.30;99.90;;;;;;5056117;28;20217;-75
2021/03/09 03:26:41;;;;;;;10.48;7.00;;;3.30;99.90;;;;;;5063684;28;20191;-75
2021/03/09 03:29:10;;;;;;;11.50;9.02;;;3.40;99.90;;;;;;5034501;28;20242;-76
2021/03/09 03:31:38;;;;;;;12.30;8.13;;;3.60;99.90;;;;;;5053551;28;20222;-74
2021/03/09 03:34:05;;;;;;;12.57;8.95;;;3.40;99.90;;;;;;5055291;28;20633;-75
2021/03/09 03:36:32;;;;;;;13.75;8.43;;;3.30;99.90;;;;;;5056832;28;20286;-75
2021/03/09 03:39:00;;;;;;;16.60;9.85;;;3.40;99.90;;;;;;5042958;28;20265;-75
2021/03/09 03:41:27;;;;;;;14.10;9.43;;;3.30;99.90;;;;;;5050194;28;20217;-75
2021/03/09 03:43:54;;;;;;;12.60;7.53;;;3.40;99.90;;;;;;5051651;28;20760;-74
2021/03/09 03:46:21;;;;;;;15.68;10.20;;;3.40;99.90;;;;;;5050933;28;20288;-75
2021/03/09 03:48:48;;;;;;;11.00;9.30;;;3.50;99.90;;;;;;5045085;28;20286;-75
2021/03/09 03:51:17;;;;;;;11.60;9.15;;;3.60;99.90;;;;;;5033853;28;20200;-74
2021/03/09 03:53:50;;;;;;;10.48;8.88;;;3.40;99.90;;;;;;5044556;28;20304;-75
2021/03/09 03:56:28;;;;;;;13.55;10.27;;;3.40;99.90;;;;;;5034867;28;20207;-75
2021/03/09 03:59:03;;;;;;;12.93;9.68;;;3.40;99.90;;;;;;5040465;28;20586;-75
2021/03/09 04:01:33;;;;;;;14.43;10.52;;;3.40;99.90;;;;;;5053338;28;20284;-75
2021/03/09 04:04:05;;;;;;;15.60;10.95;;;3.40;99.90;;;;;;5053477;28;20219;-76
2021/03/09 04:06:33;;;;;;;12.95;9.82;;;3.30;99.90;;;;;;5051984;28;20226;-76
2021/03/09 04:09:04;;;;;;;11.98;9.70;;;3.40;99.90;;;;;;5050590;28;20195;-75
2021/03/09 04:11:32;;;;;;;17.07;10.10;;;3.20;99.90;;;;;;5051348;28;20282;-75
2021/03/09 04:14:00;;;;;;;11.80;9.23;;;3.20;99.90;;;;;;5050506;28;20227;-75
2021/03/09 04:16:28;;;;;;;15.98;9.52;;;3.30;99.90;;;;;;5051685;28;20683;-75
2021/03/09 04:18:56;;;;;;;13.82;9.63;;;3.40;99.90;;;;;;5051213;28;20203;-75
2021/03/09 04:21:24;;;;;;;13.30;10.07;;;3.40;99.90;;;;;;5051584;28;20678;-75
2021/03/09 04:23:52;;;;;;;14.98;9.98;;;3.40;99.90;;;;;;5050295;28;20199;-75
2021/03/09 04:26:20;;;;;;;18.60;11.68;;;3.40;99.90;;;;;;5051551;28;20195;-76
2021/03/09 04:28:49;;;;;;;11.82;9.40;;;3.30;99.90;;;;;;5051392;28;20191;-75
2021/03/09 04:31:16;;;;;;;11.30;8.27;;;3.30;99.90;;;;;;5051183;28;20663;-75
2021/03/09 04:33:45;;;;;;;11.65;8.85;;;3.20;99.90;;;;;;5053471;28;20211;-75
2021/03/09 04:36:13;;;;;;;13.35;9.98;;;3.30;99.90;;;;;;5053336;28;20203;-75
2021/03/09 04:38:40;;;;;;;15.63;11.15;;;3.30;99.90;;;;;;5055970;28;20586;-75
2021/03/09 04:41:07;;;;;;;19.35;11.70;;;3.30;99.90;;;;;;5037673;28;20250;-75
2021/03/09 04:43:34;;;;;;;13.10;11.48;;;3.40;99.90;;;;;;5034750;28;20247;-75
2021/03/09 04:46:02;;;;;;;15.35;10.93;;;3.50;99.90;;;;;;5042849;28;20226;-75
2021/03/09 04:48:30;;;;;;;15.93;10.88;;;3.40;99.90;;;;;;5053776;28;20214;-75
2021/03/09 04:51:01;;;;;;;17.73;11.75;;;3.30;99.90;;;;;;5055816;28;20195;-76
2021/03/09 04:53:29;;;;;;;17.17;11.60;;;3.40;99.90;;;;;;5056381;28;20211;-75
2021/03/09 04:55:57;;;;;;;14.15;10.30;;;3.40;99.90;;;;;;5056625;28;20195;-75
2021/03/09 04:58:23;;;;;;;15.75;11.57;;;3.20;99.90;;;;;;5057602;28;20556;-76
2021/03/09 05:00:50;;;;;;;15.83;10.97;;;3.20;99.90;;;;;;5056062;28;20219;-75
2021/03/09 05:03:18;;;;;;;19.45;11.15;;;3.30;99.90;;;;;;5056407;28;20228;-75
2021/03/09 05:05:44;;;;;;;15.20;10.38;;;3.30;99.90;;;;;;5057444;28;20589;-75
2021/03/09 05:08:11;;;;;;;13.95;9.35;;;3.30;99.90;;;;;;5057873;28;20207;-75
2021/03/09 05:10:39;;;;;;;13.17;11.00;;;3.10;99.90;;;;;;5056111;28;20194;-75
2021/03/09 05:13:05;;;;;;;18.55;11.43;;;3.10;99.90;;;;;;5044986;28;20316;-75
2021/03/09 05:15:32;;;;;;;20.00;11.68;;;3.00;99.90;;;;;;5045242;28;20203;-75
2021/03/09 05:18:00;;;;;;;19.25;10.90;;;3.00;99.90;;;;;;5054905;28;20265;-75
2021/03/09 05:20:27;;;;;;;15.77;11.38;;;3.00;99.90;;;;;;5041779;28;20208;-76
2021/03/09 05:22:54;;;;;;;16.45;11.57;;;2.90;99.90;;;;;;5042287;28;20219;-75
2021/03/09 05:25:21;;;;;;;16.05;12.02;;;2.80;99.90;;;;;;5044549;28;20242;-75
2021/03/09 05:27:48;;;;;;;19.17;12.93;;;2.80;99.90;;;;;;5054493;28;20208;-75
2021/03/09 05:30:17;;;;;;;18.40;13.43;;;2.80;99.90;;;;;;5043616;28;20528;-75
2021/03/09 05:32:44;;;;;;;17.60;12.05;;;2.70;99.90;;;;;;5023390;28;20227;-75
2021/03/09 05:35:13;;;;;;;17.08;11.38;;;2.80;99.90;;;;;;5053218;28;20195;-75
2021/03/09 05:37:40;;;;;;;15.15;11.35;;;2.60;99.90;;;;;;5037139;28;20314;-76
2021/03/09 05:40:08;;;;;;;19.45;12.82;;;2.60;99.90;;;;;;5048869;28;20325;-76
2021/03/09 05:42:35;;;;;;;19.58;12.43;;;2.60;99.90;;;;;;5057015;28;20195;-76
2021/03/09 05:45:05;;;;;;;15.55;12.07;;;2.70;99.90;;;;;;5056842;28;20337;-76
2021/03/09 05:47:33;;;;;;;14.88;11.73;;;2.80;99.90;;;;;;5054576;28;20662;-75
2021/03/09 05:49:59;;;;;;;18.45;12.32;;;2.80;99.90;;;;;;5056335;28;20195;-76
2021/03/09 05:52:27;;;;;;;22.55;13.10;;;2.80;99.90;;;;;;5054306;28;20195;-77
2021/03/09 05:54:54;;;;;;;17.67;13.32;;;2.60;99.90;;;;;;5053750;28;20219;-76
2021/03/09 05:57:21;;;;;;;25.17;13.27;;;2.60;99.90;;;;;;5052834;28;20207;-76
2021/03/09 05:59:48;;;;;;;16.73;11.60;;;2.40;99.90;;;;;;5054021;28;20233;-76
2021/03/09 06:02:15;;;;;;;17.25;12.45;;;2.40;99.90;;;;;;5053748;28;20200;-76
2021/03/09 06:04:41;;;;;;;21.13;11.73;;;2.40;99.90;;;;;;5053870;28;20226;-76
2021/03/09 06:07:08;;;;;;;18.27;13.70;;;2.50;99.90;;;;;;5037237;28;20295;-76
2021/03/09 06:09:37;;;;;;;16.88;12.57;;;2.50;99.90;;;;;;5055053;28;20196;-76
2021/03/09 06:12:11;;;;;;;20.33;13.90;;;2.50;99.90;;;;;;5051845;28;20206;-76
2021/03/09 06:14:39;;;;;;;19.23;13.43;;;2.60;99.90;;;;;;5049793;28;20246;-76
2021/03/09 06:17:07;;;;;;;20.88;13.00;;;2.50;99.90;;;;;;5048109;28;20204;-76
2021/03/09 06:19:47;;;;;;;15.43;13.05;;;2.60;99.90;;;;;;5054279;28;20245;-76
2021/03/09 06:22:16;;;;;;;23.45;15.30;;;2.60;99.90;;;;;;5055711;28;20270;-77
2021/03/09 06:24:43;;;;;;;16.42;12.73;;;2.60;99.90;;;;;;5041667;28;20208;-76
2021/03/09 06:27:32;;;;;;;18.63;13.65;;;2.50;99.90;;;;;;5057261;28;20248;-76
2021/03/09 06:30:00;;;;;;;23.15;16.83;;;2.50;99.90;;;;;;5049273;28;20309;-75
2021/03/09 06:32:37;;;;;;;24.33;16.27;;;2.50;99.90;;;;;;5054875;28;20187;-74
2021/03/09 06:35:05;;;;;;;22.73;15.90;;;2.60;99.90;;;;;;5055656;28;20192;-74
2021/03/09 06:37:32;;;;;;;28.58;18.67;;;2.60;99.90;;;;;;5054499;28;20249;-74
2021/03/09 06:40:03;;;;;;;31.15;19.75;;;2.60;99.90;;;;;;5053506;28;20199;-74
2021/03/09 06:42:37;;;;;;;29.08;18.63;;;2.60;99.90;;;;;;5052711;28;20202;-74
2021/03/09 06:45:07;;;;;;;23.17;17.23;;;2.60;99.90;;;;;;5052669;28;20234;-75
2021/03/09 06:47:38;;;;;;;29.70;18.40;;;2.50;99.90;;;;;;5039540;28;20278;-74
2021/03/09 06:50:07;;;;;;;25.67;18.55;;;2.50;99.90;;;;;;5053086;28;20689;-76
2021/03/09 06:52:34;;;;;;;30.50;18.67;;;2.30;99.90;;;;;;5051568;28;20187;-76
2021/03/09 06:55:01;;;;;;;30.63;19.75;;;2.30;99.90;;;;;;5051960;28;20215;-77
2021/03/09 06:57:28;;;;;;;28.42;18.63;;;2.30;99.90;;;;;;5035384;28;20203;-76
2021/03/09 06:59:56;;;;;;;26.60;18.50;;;2.30;99.90;;;;;;5050558;28;20679;-77
2021/03/09 07:02:24;;;;;;;26.27;18.88;;;2.40;99.90;;;;;;5053332;28;20203;-76
2021/03/09 07:04:53;;;;;;;29.13;19.15;;;2.40;99.90;;;;;;5051482;28;20215;-77
2021/03/09 07:07:29;;;;;;;28.75;20.63;;;2.40;99.90;;;;;;5050230;28;20200;-76
2021/03/09 07:09:59;;;;;;;25.67;17.90;;;2.60;99.90;;;;;;5052823;28;20223;-76
2021/03/09 07:12:28;;;;;;;26.98;20.83;;;2.50;99.90;;;;;;5053034;28;20196;-78
2021/03/09 07:14:57;;;;;;;25.55;17.88;;;2.50;99.90;;;;;;5056136;28;20223;-77
2021/03/09 07:17:26;;;;;;;29.90;19.25;;;2.50;99.90;;;;;;5077459;28;20191;-78
2021/03/09 07:19:54;;;;;;;29.42;21.30;;;2.60;99.90;;;;;;5077986;28;20179;-79
2021/03/09 07:22:23;;;;;;;28.55;18.52;;;2.50;99.90;;;;;;5078212;28;20203;-78
2021/03/09 07:24:58;;;;;;;30.08;19.95;;;2.50;99.90;;;;;;5077228;28;20188;-78
2021/03/09 07:27:30;;;;;;;26.85;18.55;;;2.50;99.90;;;;;;5076736;28;20178;-77
2021/03/09 07:29:59;;;;;;;27.35;19.08;;;2.50;99.90;;;;;;5069755;28;20211;-77
2021/03/09 07:32:31;;;;;;;23.00;16.33;;;2.60;99.90;;;;;;5077146;28;20175;-76
2021/03/09 07:34:59;;;;;;;24.75;17.52;;;2.70;99.90;;;;;;5076791;28;20269;-76
2021/03/09 07:37:26;;;;;;;25.88;17.20;;;2.70;99.90;;;;;;5054500;28;20259;-75
2021/03/09 07:39:54;;;;;;;27.10;18.40;;;2.70;99.90;;;;;;5051962;28;20577;-80
2021/03/09 07:42:21;;;;;;;22.70;16.48;;;2.70;99.90;;;;;;5051971;28;20270;-79
2021/03/09 07:44:49;;;;;;;23.75;17.55;;;2.80;99.90;;;;;;5056587;28;20211;-80
2021/03/09 07:47:19;;;;;;;23.88;16.48;;;2.70;99.90;;;;;;5054655;28;20195;-81
2021/03/09 07:49:47;;;;;;;25.95;18.80;;;2.80;99.90;;;;;;5056147;28;20262;-80
2021/03/09 07:52:17;;;;;;;25.63;17.52;;;2.80;99.90;;;;;;5058670;28;20191;-80
2021/03/09 07:55:18;;;;;;;23.25;15.02;;;2.60;99.90;;;;;;5057369;28;20203;-80
2021/03/09 07:57:47;;;;;;;27.58;17.58;;;2.70;99.90;;;;;;5056799;28;20187;-81
2021/03/09 08:00:15;;;;;;;21.83;17.08;;;2.80;99.90;;;;;;5059643;28;20207;-80
2021/03/09 08:02:54;;;;;;;25.88;18.60;;;2.80;99.90;;;;;;5057235;28;20298;-80
2021/03/09 08:05:26;;;;;;;22.65;16.15;;;2.70;99.90;;;;;;5054108;28;20229;-80
2021/03/09 08:07:57;;;;;;;26.88;17.77;;;2.80;99.90;;;;;;5058150;28;20219;-81
2021/03/09 08:10:44;;;;;;;26.15;16.60;;;2.80;99.90;;;;;;5061521;28;20191;-80
2021/03/09 08:13:35;;;;;;;22.45;16.55;;;2.90;99.90;;;;;;5059610;28;20249;-81
2021/03/09 08:16:30;;;;;;;22.15;16.70;;;2.90;99.90;;;;;;5065090;28;20604;-80
2021/03/09 08:19:08;;;;;;;25.08;17.95;;;2.90;99.90;;;;;;5044646;28;20210;-80
2021/03/09 08:21:57;;;;;;;24.98;17.48;;;2.90;99.90;;;;;;5039674;28;20227;-80
2021/03/09 08:24:53;;;;;;;25.33;17.27;;;3.00;99.90;;;;;;5048460;28;20223;-80
2021/03/09 08:27:36;;;;;;;25.13;18.58;;;2.90;99.90;;;;;;5035409;28;20205;-81
2021/03/09 08:30:28;;;;;;;26.90;17.90;;;2.90;99.90;;;;;;5028837;28;20282;-80
2021/03/09 08:33:10;;;;;;;25.23;17.75;;;2.90;99.90;;;;;;5032743;28;20251;-80
2021/03/09 08:35:38;;;;;;;25.20;17.42;;;2.80;99.90;;;;;;5072120;28;20199;-81
2021/03/09 08:38:20;;;;;;;21.55;17.40;;;2.90;99.90;;;;;;5054678;28;20203;-80
2021/03/09 08:41:10;;;;;;;23.63;16.35;;;3.00;99.90;;;;;;5038800;28;20215;-81
2021/03/09 08:43:39;;;;;;;26.40;16.50;;;3.00;99.90;;;;;;5054842;28;20234;-80
2021/03/09 08:46:13;;;;;;;21.10;16.30;;;3.20;99.90;;;;;;5050720;28;20211;-80
2021/03/09 08:48:55;;;;;;;21.10;15.02;;;3.10;99.90;;;;;;5053725;28;20261;-82
2021/03/09 08:51:48;;;;;;;20.30;14.50;;;3.20;99.90;;;;;;5052519;28;20338;-80
2021/03/09 08:54:33;;;;;;;21.80;14.85;;;3.20;99.90;;;;;;5051911;28;20847;-76
2021/03/09 08:57:01;;;;;;;20.17;14.80;;;3.20;99.90;;;;;;5044049;28;20645;-76
2021/03/09 08:59:30;;;;;;;26.02;15.77;;;3.10;99.90;;;;;;5050036;28;20282;-77
2021/03/09 09:02:18;;;;;;;26.70;14.82;;;3.10;99.90;;;;;;5049892;28;20235;-77
2021/03/09 09:04:47;;;;;;;19.92;14.10;;;3.10;99.90;;;;;;5047983;28;20231;-78
2021/03/09 09:07:20;;;;;;;23.65;15.48;;;3.10;99.90;;;;;;5051151;28;20697;-77
2021/03/09 09:09:46;;;;;;;20.85;16.75;;;3.10;99.90;;;;;;5070491;28;20210;-82
2021/03/09 09:12:32;;;;;;;19.58;15.65;;;3.10;99.90;;;;;;5074048;28;20187;-79
2021/03/09 09:15:14;;;;;;;24.00;14.77;;;3.10;99.90;;;;;;5078404;28;20241;-81
2021/03/09 09:17:44;;;;;;;23.40;15.38;;;3.20;99.90;;;;;;5082352;28;20184;-81
2021/03/09 09:20:13;;;;;;;25.63;15.45;;;3.20;99.90;;;;;;5077126;28;20220;-82
2021/03/09 09:22:42;;;;;;;22.25;15.98;;;3.20;99.90;;;;;;5077037;28;20211;-83
2021/03/09 09:25:11;;;;;;;22.13;15.95;;;3.40;99.90;;;;;;5061767;28;20180;-83
2021/03/09 09:27:45;;;;;;;21.77;15.57;;;3.10;99.90;;;;;;5064966;28;20199;-80
2021/03/09 09:30:14;;;;;;;19.40;14.18;;;3.20;99.90;;;;;;5054678;28;20249;-79
2021/03/09 09:32:55;;;;;;;24.95;16.55;;;3.20;99.90;;;;;;5058042;28;20227;-79
2021/03/09 09:35:25;;;;;;;24.75;16.50;;;3.20;99.90;;;;;;5057463;28;20654;-80
2021/03/09 09:37:55;;;;;;;21.42;14.88;;;3.20;99.90;;;;;;5057501;28;20196;-80
2021/03/09 09:40:25;;;;;;;25.70;17.20;;;3.20;99.90;;;;;;5055010;28;20211;-80
2021/03/09 09:42:57;;;;;;;21.08;16.02;;;3.10;99.90;;;;;;5053801;28;20215;-79
2021/03/09 09:45:25;;;;;;;21.33;15.68;;;3.10;99.90;;;;;;5053866;28;20214;-79
2021/03/09 09:47:53;;;;;;;21.10;15.27;;;3.00;99.90;;;;;;5037575;28;20195;-80
2021/03/09 09:50:21;;;;;;;22.15;15.20;;;3.10;99.90;;;;;;5055532;28;20671;-79
2021/03/09 09:53:00;;;;;;;23.20;15.32;;;3.20;99.90;;;;;;5037743;28;20665;-80
2021/03/09 09:55:28;;;;;;;22.98;15.15;;;3.10;99.90;;;;;;5062129;28;20677;-80
2021/03/09 09:57:57;;;;;;;22.88;14.57;;;3.10;99.90;;;;;;5062347;28;20685;-80
2021/03/09 10:00:27;;;;;;;19.58;14.93;;;3.10;99.90;;;;;;5059002;28;20608;-80
2021/03/09 10:03:13;;;;;;;21.63;15.95;;;3.20;99.90;;;;;;5061848;28;20226;-80
2021/03/09 10:05:42;;;;;;;20.23;14.63;;;3.10;99.90;;;;;;5059405;28;20286;-80
2021/03/09 10:08:12;;;;;;;23.35;15.85;;;3.10;99.90;;;;;;5066161;28;20222;-80
2021/03/09 10:10:40;;;;;;;21.90;16.13;;;3.20;99.90;;;;;;5060784;28;20187;-80
2021/03/09 10:13:24;;;;;;;21.85;16.33;;;3.40;99.90;;;;;;5052170;28;20223;-79
2021/03/09 10:15:51;;;;;;;20.35;15.95;;;3.30;99.90;;;;;;5056612;28;20614;-79
2021/03/09 10:18:26;;;;;;;24.15;16.17;;;3.20;99.90;;;;;;5052105;28;20195;-78
2021/03/09 10:21:05;;;;;;;20.08;16.27;;;3.30;99.90;;;;;;5059966;28;20218;-79
2021/03/09 10:23:33;;;;;;;23.42;16.67;;;3.30;99.90;;;;;;5049152;28;20218;-80
2021/03/09 10:26:02;;;;;;;23.73;16.58;;;3.20;99.90;;;;;;5053543;28;20204;-78
2021/03/09 10:28:31;;;;;;;20.50;15.70;;;3.20;99.90;;;;;;5053005;28;20703;-78
2021/03/09 10:30:58;;;;;;;23.10;16.92;;;3.30;99.90;;;;;;5048678;28;20229;-79
2021/03/09 10:33:25;;;;;;;25.52;17.30;;;3.50;99.90;;;;;;5049705;28;20223;-79
2021/03/09 10:36:06;;;;;;;24.17;18.10;;;3.20;99.90;;;;;;5033890;28;20635;-79
2021/03/09 10:38:34;;;;;;;23.88;17.55;;;3.30;99.90;;;;;;5050134;28;20209;-79
2021/03/09 10:41:01;;;;;;;24.98;17.75;;;3.30;99.90;;;;;;5050753;28;20234;-79
2021/03/09 10:43:39;;;;;;;21.38;15.38;;;3.40;99.90;;;;;;5057321;28;20244;-79
2021/03/09 10:46:06;;;;;;;20.98;16.15;;;3.50;99.90;;;;;;5060540;28;20229;-79
2021/03/09 10:48:32;;;;;;;21.10;16.45;;;3.40;99.90;;;;;;5042234;28;20230;-79
2021/03/09 10:50:59;;;;;;;20.05;15.23;;;3.50;99.90;;;;;;5073011;28;20198;-79
2021/03/09 10:53:26;;;;;;;21.70;15.95;;;3.50;99.90;;;;;;5069924;28;20211;-80
2021/03/09 10:55:54;;;;;;;21.70;16.70;;;3.50;99.90;;;;;;5066640;28;20238;-79
2021/03/09 10:58:20;;;;;;;21.10;15.73;;;3.50;99.90;;;;;;5063017;28;20195;-79
2021/03/09 11:00:47;;;;;;;22.20;14.98;;;3.50;99.90;;;;;;5057580;28;20214;-80
2021/03/09 11:03:14;;;;;;;26.67;16.35;;;3.50;99.90;;;;;;5037066;28;20301;-79
2021/03/09 11:05:41;;;;;;;22.85;15.93;;;3.70;99.90;;;;;;5054560;28;20218;-79
2021/03/09 11:08:07;;;;;;;26.10;16.52;;;3.70;99.90;;;;;;5064181;28;20207;-79
2021/03/09 11:10:34;;;;;;;18.90;15.18;;;3.70;99.90;;;;;;5054987;28;20195;-79
2021/03/09 11:13:01;;;;;;;22.55;16.58;;;3.60;99.90;;;;;;5025878;28;20599;-80
2021/03/09 11:15:28;;;;;;;26.05;18.60;;;3.60;99.90;;;;;;5047406;28;20228;-79
2021/03/09 11:17:55;;;;;;;21.85;17.23;;;3.50;99.90;;;;;;5055952;28;20222;-78
2021/03/09 11:20:22;;;;;;;22.05;16.42;;;3.50;99.90;;;;;;5036726;28;20282;-79
2021/03/09 11:22:49;;;;;;;22.20;16.63;;;3.40;99.90;;;;;;5056876;28;20236;-79
2021/03/09 11:25:16;;;;;;;22.35;16.30;;;3.40;99.90;;;;;;5053441;28;20187;-79
2021/03/09 11:27:43;;;;;;;21.73;16.10;;;3.50;99.90;;;;;;5052706;28;20226;-79
2021/03/09 11:30:12;;;;;;;22.30;16.20;;;3.60;99.90;;;;;;5051869;28;20199;-79
2021/03/09 11:32:38;;;;;;;21.60;16.13;;;3.70;99.90;;;;;;5056313;28;20284;-78
2021/03/09 11:35:06;;;;;;;25.88;18.17;;;3.90;99.90;;;;;;5053302;28;20195;-78
2021/03/09 11:37:32;;;;;;;21.20;16.23;;;3.70;99.90;;;;;;5051835;28;20199;-77
2021/03/09 11:39:59;;;;;;;20.75;16.40;;;3.60;99.90;;;;;;5052140;28;20666;-79
2021/03/09 11:42:26;;;;;;;19.05;14.65;;;3.70;99.90;;;;;;5052860;28;20706;-79
2021/03/09 11:44:52;;;;;;;21.20;16.20;;;3.70;99.90;;;;;;5052613;28;20223;-77
2021/03/09 11:47:20;;;;;;;23.73;16.33;;;3.80;99.90;;;;;;5027023;28;20403;-77
2021/03/09 11:49:47;;;;;;;22.65;16.75;;;3.80;99.90;;;;;;5051991;28;20614;-80
2021/03/09 11:52:13;;;;;;;21.08;16.02;;;3.70;99.90;;;;;;5062784;28;20684;-81
2021/03/09 11:54:40;;;;;;;21.48;15.75;;;3.70;99.90;;;;;;5040792;28;20243;-78
2021/03/09 11:57:07;;;;;;;19.67;16.10;;;3.70;99.90;;;;;;5030996;28;20214;-79
2021/03/09 11:59:34;;;;;;;22.50;16.67;;;3.80;99.90;;;;;;5042432;28;20203;-78
2021/03/09 12:02:01;;;;;;;22.73;17.30;;;3.90;99.90;;;;;;5050217;28;20227;-78
2021/03/09 12:04:28;;;;;;;21.35;15.45;;;3.80;99.90;;;;;;5031347;28;20327;-79
2021/03/09 12:06:55;;;;;;;24.63;18.23;;;3.80;99.90;;;;;;5037380;28;20269;-77
2021/03/09 12:09:22;;;;;;;20.17;18.00;;;3.70;99.90;;;;;;5050349;28;20693;-78
2021/03/09 12:11:48;;;;;;;19.20;16.73;;;3.60;99.90;;;;;;5050536;28;20528;-78
2021/03/09 12:14:15;;;;;;;26.55;17.60;;;3.60;99.90;;;;;;5049783;28;20352;-78
2021/03/09 12:16:42;;;;;;;19.27;15.48;;;3.70;99.90;;;;;;5050087;28;20210;-78
2021/03/09 12:19:10;;;;;;;22.75;16.88;;;3.70;99.90;;;;;;5050315;28;20671;-77
2021/03/09 12:21:37;;;;;;;23.25;17.42;;;3.60;99.90;;;;;;5051793;28;20299;-78
2021/03/09 12:24:05;;;;;;;23.20;17.70;;;3.50;99.90;;;;;;5052326;28;20301;-79
2021/03/09 12:26:33;;;;;;;20.92;16.42;;;3.60;99.90;;;;;;5049700;28;20273;-79
2021/03/09 12:29:00;;;;;;;24.40;18.00;;;3.70;99.90;;;;;;5049515;28;20192;-78
2021/03/09 12:31:27;;;;;;;22.80;16.65;;;3.60;99.90;;;;;;5048357;28;20199;-78
2021/03/09 12:33:54;;;;;;;21.50;17.77;;;3.70;99.90;;;;;;5048477;28;20219;-79
2021/03/09 12:36:20;;;;;;;23.33;17.02;;;3.60;99.90;;;;;;5047766;28;20321;-80
2021/03/09 12:38:48;;;;;;;21.50;16.20;;;3.50;99.90;;;;;;5049512;28;20195;-79
2021/03/09 12:41:15;;;;;;;22.08;15.85;;;3.60;99.90;;;;;;5046824;28;20212;-78
2021/03/09 12:43:42;;;;;;;23.05;18.10;;;3.50;99.90;;;;;;5050792;28;20313;-78
2021/03/09 12:46:08;;;;;;;23.77;17.98;;;3.60;99.90;;;;;;5049105;28;20210;-77
2021/03/09 12:48:35;;;;;;;22.23;17.00;;;3.70;99.90;;;;;;5055748;28;20198;-78
2021/03/09 12:51:01;;;;;;;17.30;14.70;;;3.80;99.90;;;;;;5056215;28;20610;-78
2021/03/09 12:53:29;;;;;;;19.23;15.95;;;3.90;99.90;;;;;;5056897;28;20206;-77
2021/03/09 12:55:56;;;;;;;17.92;15.23;;;4.00;99.90;;;;;;5072285;28;20260;-77
2021/03/09 12:58:23;;;;;;;20.58;15.88;;;3.80;99.90;;;;;;5067727;28;20198;-77